PWSweather.com
Personal Weather Stations
Station Observations

ChardChardGB

Lat: 50.877408, Lon: -2.94964741

Elevation: 341

Station Type: WS3083

http://www.merriott-astro.co.uk/weather/index.htm

High Low Average
Temperature 64.4°F18.0°C 43.2°F6.2°C 53.1°F11.7°C
Dew Point 49.4°F9.7°C 38.7°F3.7°C 42.4°F5.8°C
Winds 6.9 mph 11.1 kmh Calm Calm 3.0 mph SSE4.8 kmh SSE
Wind Gusts 9.2 mph14.8 kmh -- 4.0 mph6.4 kmh
Humidity 87% 41% 68%
Pressure 29.60 in1002.4 mb 29.54 in1000.3 mb -
Precipitation 0.14 in3.6 mm - -
Hour Temp Dew Point Humidity Winds Wind Gusts Pressure Precip Precip Rate Daily Precip Total
12:00 AM 48.2°F9.0°C 41.7°F5.4°C 78% 4.5 mph WNW7.2 kmh WNW 7.6 mph12.2 kmh 29.59 in1002.0 mb 0.00 in0.0 mm 0.00 in0.0 mm 0.00 in0.0 mm
12:10 AM 48.0°F8.9°C 41.2°F5.1°C 77% 0.7 mph SW1.1 kmh SW 3.8 mph6.1 kmh 29.59 in1002.0 mb 0.00 in0.0 mm 0.00 in0.0 mm 0.00 in0.0 mm
12:20 AM 48.0°F8.9°C 41.2°F5.1°C 77% 3.4 mph WNW5.5 kmh WNW 4.5 mph7.2 kmh 29.59 in1002.0 mb 0.00 in0.0 mm 0.00 in0.0 mm 0.00 in0.0 mm
12:30 AM 48.2°F9.0°C 41.3°F5.2°C 77% 4.1 mph W6.6 kmh W 6.9 mph11.1 kmh 29.59 in1002.0 mb 0.00 in0.0 mm 0.00 in0.0 mm 0.00 in0.0 mm
12:40 AM 48.6°F9.2°C 41.7°F5.4°C 77% 6.4 mph NW10.3 kmh NW 8.3 mph13.4 kmh 29.59 in1002.0 mb 0.00 in0.0 mm 0.00 in0.0 mm 0.00 in0.0 mm
12:50 AM 48.7°F9.3°C 41.5°F5.3°C 76% 6.0 mph WSW9.7 kmh WSW 7.6 mph12.2 kmh 29.59 in1002.0 mb 0.00 in0.0 mm 0.00 in0.0 mm 0.00 in0.0 mm
01:00 AM 48.6°F9.2°C 41.3°F5.2°C 76% 4.4 mph WNW7.1 kmh WNW 6.0 mph9.7 kmh 29.59 in1002.0 mb 0.00 in0.0 mm 0.00 in0.0 mm 0.00 in0.0 mm
01:10 AM 48.2°F9.0°C 41.0°F5.0°C 76% 2.4 mph W3.9 kmh W 5.4 mph8.7 kmh 29.59 in1002.0 mb 0.00 in0.0 mm 0.00 in0.0 mm 0.00 in0.0 mm
01:20 AM 47.7°F8.7°C 40.5°F4.7°C 76% 1.7 mph WNW2.7 kmh WNW 4.5 mph7.2 kmh 29.59 in1002.0 mb 0.00 in0.0 mm 0.00 in0.0 mm 0.00 in0.0 mm
01:30 AM 47.3°F8.5°C 40.1°F4.5°C 76% 2.2 mph WNW3.5 kmh WNW 4.5 mph7.2 kmh 29.59 in1002.0 mb 0.00 in0.0 mm 0.00 in0.0 mm 0.00 in0.0 mm
01:40 AM 47.1°F8.4°C 40.3°F4.6°C 77% 1.2 mph WNW1.9 kmh WNW 3.8 mph6.1 kmh 29.59 in1002.0 mb 0.00 in0.0 mm 0.00 in0.0 mm 0.00 in0.0 mm
01:50 AM 46.9°F8.3°C 40.1°F4.5°C 77% 0.8 mph WNW1.3 kmh WNW 3.8 mph6.1 kmh 29.59 in1002.0 mb 0.00 in0.0 mm 0.00 in0.0 mm 0.00 in0.0 mm
02:00 AM 46.8°F8.2°C 39.9°F4.4°C 77% 0.4 mph NW0.6 kmh NW 3.8 mph6.1 kmh 29.58 in1001.7 mb 0.00 in0.0 mm 0.00 in0.0 mm 0.00 in0.0 mm
02:10 AM 46.6°F8.1°C 39.8°F4.3°C 77% 0.4 mph WSW0.6 kmh WSW 3.1 mph5.0 kmh 29.58 in1001.7 mb 0.00 in0.0 mm 0.00 in0.0 mm 0.00 in0.0 mm
02:20 AM 46.6°F8.1°C 40.1°F4.5°C 78% 0.8 mph WNW1.3 kmh WNW 2.2 mph3.5 kmh 29.59 in1002.0 mb 0.00 in0.0 mm 0.00 in0.0 mm 0.00 in0.0 mm
02:30 AM 46.0°F7.8°C 39.6°F4.2°C 78% Calm Calm -- 29.58 in1001.7 mb 0.00 in0.0 mm 0.00 in0.0 mm 0.00 in0.0 mm
02:40 AM 46.0°F7.8°C 39.6°F4.2°C 78% Calm Calm -- 29.58 in1001.7 mb 0.00 in0.0 mm 0.00 in0.0 mm 0.00 in0.0 mm
02:50 AM 45.5°F7.5°C 39.0°F3.9°C 78% Calm Calm -- 29.58 in1001.7 mb 0.00 in0.0 mm 0.00 in0.0 mm 0.00 in0.0 mm
03:00 AM 44.8°F7.1°C 39.9°F4.4°C 83% Calm Calm -- 29.58 in1001.7 mb 0.00 in0.0 mm 0.00 in0.0 mm 0.00 in0.0 mm
03:10 AM 44.4°F6.9°C 39.6°F4.2°C 83% Calm Calm -- 29.58 in1001.7 mb 0.00 in0.0 mm 0.00 in0.0 mm 0.00 in0.0 mm
03:20 AM 44.2°F6.8°C 39.7°F4.3°C 84% Calm Calm -- 29.59 in1002.0 mb 0.00 in0.0 mm 0.00 in0.0 mm 0.00 in0.0 mm
03:30 AM 44.1°F6.7°C 39.5°F4.2°C 84% Calm Calm -- 29.59 in1002.0 mb 0.00 in0.0 mm 0.00 in0.0 mm 0.00 in0.0 mm
03:40 AM 43.5°F6.4°C 39.0°F3.9°C 84% Calm Calm -- 29.58 in1001.7 mb 0.00 in0.0 mm 0.00 in0.0 mm 0.00 in0.0 mm
03:50 AM 43.3°F6.3°C 38.8°F3.8°C 84% 0.6 mph E1.0 kmh E 2.2 mph3.5 kmh 29.58 in1001.7 mb 0.00 in0.0 mm 0.00 in0.0 mm 0.00 in0.0 mm
04:00 AM 43.2°F6.2°C 38.7°F3.7°C 84% Calm Calm -- 29.58 in1001.7 mb 0.00 in0.0 mm 0.00 in0.0 mm 0.00 in0.0 mm
04:10 AM 44.1°F6.7°C 39.8°F4.3°C 85% 0.8 mph ESE1.3 kmh ESE 2.2 mph3.5 kmh 29.58 in1001.7 mb 0.00 in0.0 mm 0.00 in0.0 mm 0.00 in0.0 mm
04:20 AM 43.9°F6.6°C 40.0°F4.4°C 86% 0.6 mph SSW1.0 kmh SSW 2.2 mph3.5 kmh 29.58 in1001.7 mb 0.00 in0.0 mm 0.00 in0.0 mm 0.00 in0.0 mm
04:30 AM 43.9°F6.6°C 40.0°F4.4°C 86% Calm Calm -- 29.59 in1002.0 mb 0.00 in0.0 mm 0.00 in0.0 mm 0.00 in0.0 mm
04:40 AM 43.7°F6.5°C 39.8°F4.3°C 86% Calm Calm -- 29.59 in1002.0 mb 0.00 in0.0 mm 0.00 in0.0 mm 0.00 in0.0 mm
04:50 AM 43.7°F6.5°C 39.8°F4.3°C 86% Calm Calm -- 29.59 in1002.0 mb 0.00 in0.0 mm 0.00 in0.0 mm 0.00 in0.0 mm
05:00 AM 43.9°F6.6°C 40.0°F4.4°C 86% 0.6 mph SSE1.0 kmh SSE 3.1 mph5.0 kmh 29.59 in1002.0 mb 0.00 in0.0 mm 0.00 in0.0 mm 0.00 in0.0 mm
05:10 AM 43.9°F6.6°C 40.0°F4.4°C 86% 0.8 mph S1.3 kmh S 3.1 mph5.0 kmh 29.59 in1002.0 mb 0.00 in0.0 mm 0.00 in0.0 mm 0.00 in0.0 mm
05:20 AM 44.2°F6.8°C 40.6°F4.8°C 87% 0.5 mph SW0.8 kmh SW 1.6 mph2.6 kmh 29.60 in1002.4 mb 0.00 in0.0 mm 0.00 in0.0 mm 0.00 in0.0 mm
05:30 AM 45.1°F7.3°C 41.5°F5.3°C 87% 0.4 mph SE0.6 kmh SE 2.2 mph3.5 kmh 29.59 in1002.0 mb 0.00 in0.0 mm 0.00 in0.0 mm 0.00 in0.0 mm
05:40 AM 45.1°F7.3°C 41.5°F5.3°C 87% 1.9 mph S3.1 kmh S 3.8 mph6.1 kmh 29.59 in1002.0 mb 0.00 in0.0 mm 0.00 in0.0 mm 0.00 in0.0 mm
05:50 AM 46.2°F7.9°C 41.0°F5.0°C 82% 0.2 mph SE0.3 kmh SE 1.6 mph2.6 kmh 29.59 in1002.0 mb 0.00 in0.0 mm 0.00 in0.0 mm 0.00 in0.0 mm
06:00 AM 47.3°F8.5°C 42.1°F5.6°C 82% 0.1 mph ESE0.2 kmh ESE 0.7 mph1.1 kmh 29.59 in1002.0 mb 0.00 in0.0 mm 0.00 in0.0 mm 0.00 in0.0 mm
06:10 AM 48.7°F9.3°C 43.8°F6.6°C 83% 0.3 mph S0.5 kmh S 1.6 mph2.6 kmh 29.59 in1002.0 mb 0.00 in0.0 mm 0.00 in0.0 mm 0.00 in0.0 mm
06:20 AM 51.8°F11.0°C 46.8°F8.2°C 83% Calm Calm -- 29.59 in1002.0 mb 0.00 in0.0 mm 0.00 in0.0 mm 0.00 in0.0 mm
06:30 AM 54.0°F12.2°C 48.6°F9.2°C 82% Calm Calm -- 29.60 in1002.4 mb 0.00 in0.0 mm 0.00 in0.0 mm 0.00 in0.0 mm
06:40 AM 56.5°F13.6°C 49.4°F9.7°C 77% Calm Calm -- 29.60 in1002.4 mb 0.00 in0.0 mm 0.00 in0.0 mm 0.00 in0.0 mm
06:50 AM 55.2°F12.9°C 45.6°F7.6°C 70% 2.6 mph S4.2 kmh S 4.5 mph7.2 kmh 29.59 in1002.0 mb 0.00 in0.0 mm 0.00 in0.0 mm 0.00 in0.0 mm
07:00 AM 55.2°F12.9°C 44.9°F7.2°C 68% 2.2 mph SE3.5 kmh SE 4.5 mph7.2 kmh 29.59 in1002.0 mb 0.00 in0.0 mm 0.00 in0.0 mm 0.00 in0.0 mm
07:10 AM 57.4°F14.1°C 46.9°F8.3°C 68% 2.8 mph SSE4.5 kmh SSE 4.5 mph7.2 kmh 29.59 in1002.0 mb 0.00 in0.0 mm 0.00 in0.0 mm 0.00 in0.0 mm
07:20 AM 59.5°F15.3°C 48.2°F9.0°C 66% 1.4 mph S2.3 kmh S 2.2 mph3.5 kmh 29.60 in1002.4 mb 0.00 in0.0 mm 0.00 in0.0 mm 0.00 in0.0 mm
07:30 AM 59.0°F15.0°C 45.6°F7.6°C 61% 2.5 mph WSW4.0 kmh WSW 5.4 mph8.7 kmh 29.59 in1002.0 mb 0.00 in0.0 mm 0.00 in0.0 mm 0.00 in0.0 mm
07:40 AM 57.0°F13.9°C 44.6°F7.0°C 63% 3.6 mph WSW5.8 kmh WSW 5.4 mph8.7 kmh 29.60 in1002.4 mb 0.00 in0.0 mm 0.00 in0.0 mm 0.00 in0.0 mm
07:50 AM 57.7°F14.3°C 45.7°F7.6°C 64% 4.1 mph NW6.6 kmh NW 6.0 mph9.7 kmh 29.59 in1002.0 mb 0.00 in0.0 mm 0.00 in0.0 mm 0.00 in0.0 mm
08:00 AM 58.6°F14.8°C 45.2°F7.3°C 61% 4.0 mph SW6.4 kmh SW 6.0 mph9.7 kmh 29.60 in1002.4 mb 0.00 in0.0 mm 0.00 in0.0 mm 0.00 in0.0 mm
08:10 AM 56.1°F13.4°C 43.3°F6.3°C 62% 5.9 mph W9.5 kmh W 8.3 mph13.4 kmh 29.59 in1002.0 mb 0.00 in0.0 mm 0.00 in0.0 mm 0.00 in0.0 mm
08:20 AM 56.3°F13.5°C 43.5°F6.4°C 62% 5.5 mph WNW8.9 kmh WNW 7.6 mph12.2 kmh 29.59 in1002.0 mb 0.00 in0.0 mm 0.00 in0.0 mm 0.00 in0.0 mm
08:30 AM 60.4°F15.8°C 46.9°F8.3°C 61% 4.0 mph WNW6.4 kmh WNW 5.4 mph8.7 kmh 29.59 in1002.0 mb 0.00 in0.0 mm 0.00 in0.0 mm 0.00 in0.0 mm
08:40 AM 59.0°F15.0°C 44.7°F7.1°C 59% 5.2 mph WSW8.4 kmh WSW 6.0 mph9.7 kmh 29.59 in1002.0 mb 0.00 in0.0 mm 0.00 in0.0 mm 0.00 in0.0 mm
08:50 AM 59.0°F15.0°C 43.3°F6.3°C 56% 4.7 mph W7.6 kmh W 9.2 mph14.8 kmh 29.59 in1002.0 mb 0.00 in0.0 mm 0.00 in0.0 mm 0.00 in0.0 mm
09:00 AM 58.8°F14.9°C 45.0°F7.2°C 60% 4.3 mph W6.9 kmh W 5.4 mph8.7 kmh 29.59 in1002.0 mb 0.00 in0.0 mm 0.00 in0.0 mm 0.00 in0.0 mm
09:10 AM 61.3°F16.3°C 45.5°F7.5°C 56% 4.8 mph W7.7 kmh W 6.0 mph9.7 kmh 29.59 in1002.0 mb 0.00 in0.0 mm 0.00 in0.0 mm 0.00 in0.0 mm
09:20 AM 62.4°F16.9°C 44.6°F7.0°C 52% 5.9 mph NW9.5 kmh NW 7.6 mph12.2 kmh 29.58 in1001.7 mb 0.00 in0.0 mm 0.00 in0.0 mm 0.00 in0.0 mm
09:30 AM 59.2°F15.1°C 42.1°F5.6°C 53% 4.4 mph W7.1 kmh W 6.0 mph9.7 kmh 29.59 in1002.0 mb 0.00 in0.0 mm 0.00 in0.0 mm 0.00 in0.0 mm
09:40 AM 64.2°F17.9°C 44.7°F7.1°C 49% 2.7 mph NW4.3 kmh NW 4.5 mph7.2 kmh 29.58 in1001.7 mb 0.00 in0.0 mm 0.00 in0.0 mm 0.00 in0.0 mm
09:50 AM 61.2°F16.2°C 42.4°F5.8°C 50% 4.4 mph WNW7.1 kmh WNW 6.0 mph9.7 kmh 29.58 in1001.7 mb 0.00 in0.0 mm 0.00 in0.0 mm 0.00 in0.0 mm
10:00 AM 61.9°F16.6°C 44.1°F6.7°C 52% 1.5 mph W2.4 kmh W 4.5 mph7.2 kmh 29.58 in1001.7 mb 0.00 in0.0 mm 0.00 in0.0 mm 0.00 in0.0 mm
10:10 AM 60.8°F16.0°C 42.6°F5.9°C 51% 3.8 mph W6.1 kmh W 5.4 mph8.7 kmh 29.58 in1001.7 mb 0.00 in0.0 mm 0.00 in0.0 mm 0.00 in0.0 mm
10:20 AM 63.9°F17.7°C 42.1°F5.6°C 45% 3.9 mph NW6.3 kmh NW 6.0 mph9.7 kmh 29.58 in1001.7 mb 0.00 in0.0 mm 0.00 in0.0 mm 0.00 in0.0 mm
10:30 AM 62.6°F17.0°C 43.2°F6.2°C 49% 2.8 mph W4.5 kmh W 4.5 mph7.2 kmh 29.58 in1001.7 mb 0.00 in0.0 mm 0.00 in0.0 mm 0.00 in0.0 mm
10:40 AM 61.0°F16.1°C 39.5°F4.2°C 45% 3.7 mph W6.0 kmh W 4.5 mph7.2 kmh 29.57 in1001.4 mb 0.00 in0.0 mm 0.00 in0.0 mm 0.00 in0.0 mm
10:50 AM 60.6°F15.9°C 39.2°F4.0°C 45% 2.1 mph WNW3.4 kmh WNW 3.8 mph6.1 kmh 29.57 in1001.4 mb 0.00 in0.0 mm 0.00 in0.0 mm 0.00 in0.0 mm
11:00 AM 61.5°F16.4°C 42.2°F5.7°C 49% 0.8 mph W1.3 kmh W 3.8 mph6.1 kmh 29.57 in1001.4 mb 0.00 in0.0 mm 0.00 in0.0 mm 0.00 in0.0 mm
11:10 AM 64.4°F18.0°C 42.6°F5.9°C 45% 1.6 mph NE2.6 kmh NE 3.8 mph6.1 kmh 29.57 in1001.4 mb 0.00 in0.0 mm 0.00 in0.0 mm 0.00 in0.0 mm
11:20 AM 62.1°F16.7°C 43.2°F6.2°C 50% 5.0 mph NNE8.0 kmh NNE 9.2 mph14.8 kmh 29.57 in1001.4 mb 0.00 in0.0 mm 0.00 in0.0 mm 0.00 in0.0 mm
11:30 AM 61.5°F16.4°C 42.2°F5.7°C 49% 2.0 mph NW3.2 kmh NW 4.5 mph7.2 kmh 29.56 in1001.0 mb 0.00 in0.0 mm 0.00 in0.0 mm 0.00 in0.0 mm
11:40 AM 63.9°F17.7°C 40.3°F4.6°C 42% 0.2 mph N0.3 kmh N 0.7 mph1.1 kmh 29.57 in1001.4 mb 0.00 in0.0 mm 0.00 in0.0 mm 0.00 in0.0 mm
11:50 AM 63.7°F17.6°C 39.6°F4.2°C 41% 2.6 mph WSW4.2 kmh WSW 5.4 mph8.7 kmh 29.56 in1001.0 mb 0.00 in0.0 mm 0.00 in0.0 mm 0.00 in0.0 mm
12:00 PM 60.6°F15.9°C 42.9°F6.1°C 52% 5.2 mph WNW8.4 kmh WNW 8.3 mph13.4 kmh 29.57 in1001.4 mb 0.00 in0.0 mm 0.00 in0.0 mm 0.00 in0.0 mm
12:10 PM 59.0°F15.0°C 43.3°F6.3°C 56% 5.3 mph NNE8.5 kmh NNE 6.9 mph11.1 kmh 29.57 in1001.4 mb 0.00 in0.0 mm 0.00 in0.0 mm 0.00 in0.0 mm
12:20 PM 58.6°F14.8°C 44.8°F7.1°C 60% 5.6 mph NE9.0 kmh NE 6.9 mph11.1 kmh 29.56 in1001.0 mb 0.00 in0.0 mm 0.00 in0.0 mm 0.00 in0.0 mm
12:30 PM 58.6°F14.8°C 44.8°F7.1°C 60% 4.6 mph NNE7.4 kmh NNE 6.0 mph9.7 kmh 29.56 in1001.0 mb 0.00 in0.0 mm 0.00 in0.0 mm 0.00 in0.0 mm
12:40 PM 59.4°F15.2°C 45.0°F7.2°C 59% 5.3 mph NE8.5 kmh NE 7.6 mph12.2 kmh 29.56 in1001.0 mb 0.00 in0.0 mm 0.00 in0.0 mm 0.00 in0.0 mm
12:50 PM 58.5°F14.7°C 43.3°F6.3°C 57% 5.7 mph NE9.2 kmh NE 7.6 mph12.2 kmh 29.56 in1001.0 mb 0.00 in0.0 mm 0.00 in0.0 mm 0.00 in0.0 mm
01:00 PM 57.7°F14.3°C 43.1°F6.2°C 58% 5.0 mph NE8.0 kmh NE 6.9 mph11.1 kmh 29.57 in1001.4 mb 0.00 in0.0 mm 0.00 in0.0 mm 0.00 in0.0 mm
01:10 PM 57.7°F14.3°C 43.5°F6.4°C 59% 3.1 mph NW5.0 kmh NW 6.0 mph9.7 kmh 29.57 in1001.4 mb 0.00 in0.0 mm 0.00 in0.0 mm 0.00 in0.0 mm
01:20 PM 57.7°F14.3°C 43.1°F6.2°C 58% 4.4 mph NE7.1 kmh NE 6.9 mph11.1 kmh 29.56 in1001.0 mb 0.00 in0.0 mm 0.00 in0.0 mm 0.00 in0.0 mm
01:30 PM 58.5°F14.7°C 42.4°F5.8°C 55% 4.0 mph N6.4 kmh N 6.0 mph9.7 kmh 29.57 in1001.4 mb 0.00 in0.0 mm 0.00 in0.0 mm 0.00 in0.0 mm
01:40 PM 59.0°F15.0°C 42.9°F6.1°C 55% 3.5 mph NE5.6 kmh NE 5.4 mph8.7 kmh 29.56 in1001.0 mb 0.00 in0.0 mm 0.00 in0.0 mm 0.00 in0.0 mm
01:50 PM 59.4°F15.2°C 43.2°F6.2°C 55% 4.4 mph N7.1 kmh N 6.0 mph9.7 kmh 29.56 in1001.0 mb 0.00 in0.0 mm 0.00 in0.0 mm 0.00 in0.0 mm
02:00 PM 61.2°F16.2°C 44.9°F7.2°C 55% 3.1 mph N5.0 kmh N 5.4 mph8.7 kmh 29.56 in1001.0 mb 0.00 in0.0 mm 0.00 in0.0 mm 0.00 in0.0 mm
02:10 PM 61.7°F16.5°C 44.9°F7.2°C 54% 2.6 mph NNE4.2 kmh NNE 5.4 mph8.7 kmh 29.55 in1000.7 mb 0.00 in0.0 mm 0.00 in0.0 mm 0.00 in0.0 mm
02:20 PM 61.2°F16.2°C 43.4°F6.3°C 52% 4.8 mph NE7.7 kmh NE 6.0 mph9.7 kmh 29.55 in1000.7 mb 0.00 in0.0 mm 0.00 in0.0 mm 0.00 in0.0 mm
02:30 PM 60.4°F15.8°C 43.2°F6.2°C 53% 4.8 mph NE7.7 kmh NE 6.0 mph9.7 kmh 29.56 in1001.0 mb 0.00 in0.0 mm 0.00 in0.0 mm 0.00 in0.0 mm
02:40 PM 59.9°F15.5°C 42.2°F5.7°C 52% 6.4 mph NE10.3 kmh NE 8.3 mph13.4 kmh 29.56 in1001.0 mb 0.00 in0.0 mm 0.00 in0.0 mm 0.00 in0.0 mm
02:50 PM 60.6°F15.9°C 42.4°F5.8°C 51% 4.6 mph NE7.4 kmh NE 9.2 mph14.8 kmh 29.55 in1000.7 mb 0.00 in0.0 mm 0.00 in0.0 mm 0.00 in0.0 mm
03:00 PM 59.9°F15.5°C 41.2°F5.1°C 50% 5.0 mph N8.0 kmh N 7.6 mph12.2 kmh 29.56 in1001.0 mb 0.00 in0.0 mm 0.00 in0.0 mm 0.00 in0.0 mm
03:10 PM 60.1°F15.6°C 41.4°F5.2°C 50% 5.5 mph ENE8.9 kmh ENE 8.3 mph13.4 kmh 29.55 in1000.7 mb 0.00 in0.0 mm 0.00 in0.0 mm 0.00 in0.0 mm
03:20 PM 59.4°F15.2°C 41.2°F5.1°C 51% 6.9 mph NE11.1 kmh NE 9.2 mph14.8 kmh 29.55 in1000.7 mb 0.00 in0.0 mm 0.00 in0.0 mm 0.00 in0.0 mm
03:30 PM 58.3°F14.6°C 40.7°F4.8°C 52% 5.6 mph NNE9.0 kmh NNE 8.3 mph13.4 kmh 29.56 in1001.0 mb 0.00 in0.0 mm 0.00 in0.0 mm 0.00 in0.0 mm
03:40 PM 57.7°F14.3°C 40.7°F4.8°C 53% 5.8 mph NNE9.3 kmh NNE 8.3 mph13.4 kmh 29.55 in1000.7 mb 0.00 in0.0 mm 0.00 in0.0 mm 0.00 in0.0 mm
03:50 PM 57.6°F14.2°C 40.1°F4.5°C 52% 5.6 mph NE9.0 kmh NE 7.6 mph12.2 kmh 29.55 in1000.7 mb 0.00 in0.0 mm 0.00 in0.0 mm 0.00 in0.0 mm
04:00 PM 57.6°F14.2°C 41.1°F5.1°C 54% 4.9 mph NE7.9 kmh NE 6.9 mph11.1 kmh 29.54 in1000.3 mb 0.00 in0.0 mm 0.00 in0.0 mm 0.00 in0.0 mm
04:10 PM 57.2°F14.0°C 39.2°F4.0°C 51% 4.7 mph N7.6 kmh N 6.0 mph9.7 kmh 29.55 in1000.7 mb 0.00 in0.0 mm 0.00 in0.0 mm 0.00 in0.0 mm
04:20 PM 56.8°F13.8°C 39.9°F4.4°C 53% 4.1 mph NNE6.6 kmh NNE 5.4 mph8.7 kmh 29.55 in1000.7 mb 0.00 in0.0 mm 0.00 in0.0 mm 0.00 in0.0 mm
04:30 PM 56.7°F13.7°C 39.2°F4.0°C 52% 1.8 mph NNE2.9 kmh NNE 5.4 mph8.7 kmh 29.54 in1000.3 mb 0.00 in0.0 mm 0.00 in0.0 mm 0.00 in0.0 mm
04:40 PM 56.3°F13.5°C 39.4°F4.1°C 53% 2.3 mph NE3.7 kmh NE 4.5 mph7.2 kmh 29.55 in1000.7 mb 0.00 in0.0 mm 0.00 in0.0 mm 0.00 in0.0 mm
04:50 PM 55.8°F13.2°C 40.8°F4.9°C 57% Calm Calm -- 29.55 in1000.7 mb 0.00 in0.0 mm 0.00 in0.0 mm 0.00 in0.0 mm
05:00 PM 55.4°F13.0°C 40.9°F4.9°C 58% 0.6 mph S1.0 kmh S 2.2 mph3.5 kmh 29.55 in1000.7 mb 0.00 in0.0 mm 0.00 in0.0 mm 0.00 in0.0 mm
05:10 PM 53.6°F12.0°C 43.7°F6.5°C 69% 3.3 mph SW5.3 kmh SW 6.0 mph9.7 kmh 29.56 in1001.0 mb 0.02 in0.5 mm 0.12 in3.0 mm 0.02 in0.5 mm
05:20 PM 52.2°F11.2°C 43.4°F6.3°C 72% 3.6 mph SW5.8 kmh SW 6.0 mph9.7 kmh 29.55 in1000.7 mb 0.04 in1.0 mm 0.12 in3.0 mm 0.04 in1.0 mm
05:30 PM 51.4°F10.8°C 43.4°F6.3°C 74% 2.8 mph SW4.5 kmh SW 4.5 mph7.2 kmh 29.56 in1001.0 mb 0.09 in2.3 mm 0.30 in7.6 mm 0.09 in2.3 mm
05:40 PM 50.9°F10.5°C 43.6°F6.4°C 76% 3.7 mph S6.0 kmh S 6.9 mph11.1 kmh 29.56 in1001.0 mb 0.12 in3.0 mm 0.18 in4.6 mm 0.12 in3.0 mm
05:50 PM 50.4°F10.2°C 43.8°F6.6°C 78% 4.6 mph S7.4 kmh S 6.0 mph9.7 kmh 29.57 in1001.4 mb 0.13 in3.3 mm 0.06 in1.5 mm 0.13 in3.3 mm
06:00 PM 50.2°F10.1°C 43.9°F6.6°C 79% 4.0 mph S6.4 kmh S 6.0 mph9.7 kmh 29.55 in1000.7 mb 0.14 in3.6 mm 0.01 in0.3 mm 0.14 in3.6 mm
06:10 PM 50.4°F10.2°C 44.1°F6.7°C 79% 3.1 mph S5.0 kmh S 5.4 mph8.7 kmh 29.55 in1000.7 mb 0.12 in3.0 mm 0.00 in0.0 mm 0.14 in3.6 mm
06:20 PM 50.5°F10.3°C 44.3°F6.8°C 79% 1.7 mph S2.7 kmh S 3.1 mph5.0 kmh 29.55 in1000.7 mb 0.11 in2.8 mm 0.00 in0.0 mm 0.14 in3.6 mm
06:30 PM 50.4°F10.2°C 44.1°F6.7°C 79% 3.6 mph S5.8 kmh S 5.4 mph8.7 kmh 29.55 in1000.7 mb 0.05 in1.3 mm 0.00 in0.0 mm 0.14 in3.6 mm
06:40 PM 50.4°F10.2°C 44.1°F6.7°C 79% 2.7 mph S4.3 kmh S 5.4 mph8.7 kmh 29.55 in1000.7 mb 0.02 in0.5 mm 0.00 in0.0 mm 0.14 in3.6 mm
06:50 PM 50.4°F10.2°C 44.1°F6.7°C 79% 0.1 mph S0.2 kmh S 0.7 mph1.1 kmh 29.55 in1000.7 mb 0.01 in0.3 mm 0.00 in0.0 mm 0.14 in3.6 mm
07:00 PM 50.4°F10.2°C 44.1°F6.7°C 79% Calm Calm -- 29.56 in1001.0 mb 0.00 in0.0 mm 0.00 in0.0 mm 0.14 in3.6 mm
07:10 PM 50.4°F10.2°C 44.4°F6.9°C 80% Calm Calm -- 29.55 in1000.7 mb 0.00 in0.0 mm 0.00 in0.0 mm 0.14 in3.6 mm
07:20 PM 50.2°F10.1°C 44.3°F6.8°C 80% Calm Calm -- 29.55 in1000.7 mb 0.00 in0.0 mm 0.00 in0.0 mm 0.14 in3.6 mm
07:30 PM 50.4°F10.2°C 44.4°F6.9°C 80% Calm Calm -- 29.56 in1001.0 mb 0.00 in0.0 mm 0.00 in0.0 mm 0.14 in3.6 mm
07:40 PM 51.3°F10.7°C 45.3°F7.4°C 80% Calm Calm -- 29.55 in1000.7 mb 0.00 in0.0 mm 0.00 in0.0 mm 0.14 in3.6 mm
07:50 PM 51.1°F10.6°C 45.1°F7.3°C 80% Calm Calm -- 29.56 in1001.0 mb 0.00 in0.0 mm 0.00 in0.0 mm 0.14 in3.6 mm
08:00 PM 50.7°F10.4°C 44.5°F6.9°C 79% Calm Calm -- 29.56 in1001.0 mb 0.00 in0.0 mm 0.00 in0.0 mm 0.14 in3.6 mm
08:10 PM 50.2°F10.1°C 43.9°F6.6°C 79% Calm Calm -- 29.56 in1001.0 mb 0.00 in0.0 mm 0.00 in0.0 mm 0.14 in3.6 mm
08:20 PM 50.0°F10.0°C 43.8°F6.6°C 79% Calm Calm -- 29.57 in1001.4 mb 0.00 in0.0 mm 0.00 in0.0 mm 0.14 in3.6 mm
08:30 PM 49.5°F9.7°C 43.2°F6.2°C 79% Calm Calm -- 29.56 in1001.0 mb 0.00 in0.0 mm 0.00 in0.0 mm 0.14 in3.6 mm
08:40 PM 49.5°F9.7°C 43.6°F6.4°C 80% 0.2 mph NW0.3 kmh NW 3.1 mph5.0 kmh 29.56 in1001.0 mb 0.00 in0.0 mm 0.00 in0.0 mm 0.14 in3.6 mm
08:50 PM 49.6°F9.8°C 43.4°F6.3°C 79% 0.1 mph NW0.2 kmh NW 0.7 mph1.1 kmh 29.57 in1001.4 mb 0.00 in0.0 mm 0.00 in0.0 mm 0.14 in3.6 mm
09:00 PM 49.6°F9.8°C 43.4°F6.3°C 79% 0.6 mph NW1.0 kmh NW 3.1 mph5.0 kmh 29.56 in1001.0 mb 0.00 in0.0 mm 0.00 in0.0 mm 0.14 in3.6 mm
09:20 PM 49.5°F9.7°C 42.6°F5.9°C 77% Calm Calm 0.7 mph1.1 kmh 29.57 in1001.4 mb 0.00 in0.0 mm 0.00 in0.0 mm 0.14 in3.6 mm
09:30 PM 49.3°F9.6°C 42.0°F5.6°C 76% 0.1 mph WNW0.2 kmh WNW 0.7 mph1.1 kmh 29.57 in1001.4 mb 0.00 in0.0 mm 0.00 in0.0 mm 0.14 in3.6 mm
09:40 PM 49.1°F9.5°C 41.9°F5.5°C 76% 0.4 mph NW0.6 kmh NW 3.1 mph5.0 kmh 29.56 in1001.0 mb 0.00 in0.0 mm 0.00 in0.0 mm 0.14 in3.6 mm
09:50 PM 49.1°F9.5°C 41.9°F5.5°C 76% 1.1 mph WNW1.8 kmh WNW 3.1 mph5.0 kmh 29.56 in1001.0 mb 0.00 in0.0 mm 0.00 in0.0 mm 0.14 in3.6 mm
10:00 PM 49.5°F9.7°C 41.9°F5.5°C 75% 1.8 mph NW2.9 kmh NW 3.8 mph6.1 kmh 29.56 in1001.0 mb 0.00 in0.0 mm 0.00 in0.0 mm 0.14 in3.6 mm
10:10 PM 49.6°F9.8°C 41.7°F5.4°C 74% 4.2 mph W6.8 kmh W 6.9 mph11.1 kmh 29.56 in1001.0 mb 0.00 in0.0 mm 0.00 in0.0 mm 0.14 in3.6 mm
10:20 PM 49.6°F9.8°C 41.3°F5.2°C 73% 4.3 mph WNW6.9 kmh WNW 6.0 mph9.7 kmh 29.55 in1000.7 mb 0.00 in0.0 mm 0.00 in0.0 mm 0.14 in3.6 mm
10:30 PM 49.5°F9.7°C 41.2°F5.1°C 73% 4.8 mph WNW7.7 kmh WNW 6.9 mph11.1 kmh 29.55 in1000.7 mb 0.00 in0.0 mm 0.00 in0.0 mm 0.14 in3.6 mm
10:40 PM 49.5°F9.7°C 41.2°F5.1°C 73% 4.9 mph W7.9 kmh W 9.2 mph14.8 kmh 29.56 in1001.0 mb 0.00 in0.0 mm 0.00 in0.0 mm 0.14 in3.6 mm
10:50 PM 49.5°F9.7°C 41.2°F5.1°C 73% 5.1 mph WNW8.2 kmh WNW 7.6 mph12.2 kmh 29.55 in1000.7 mb 0.00 in0.0 mm 0.00 in0.0 mm 0.14 in3.6 mm
11:00 PM 49.1°F9.5°C 40.8°F4.9°C 73% 3.7 mph WNW6.0 kmh WNW 5.4 mph8.7 kmh 29.55 in1000.7 mb 0.00 in0.0 mm 0.00 in0.0 mm 0.14 in3.6 mm
11:10 PM 48.7°F9.3°C 40.5°F4.7°C 73% 2.5 mph WNW4.0 kmh WNW 3.8 mph6.1 kmh 29.55 in1000.7 mb 0.00 in0.0 mm 0.00 in0.0 mm 0.14 in3.6 mm
11:20 PM 48.6°F9.2°C 40.7°F4.8°C 74% 2.7 mph W4.3 kmh W 5.4 mph8.7 kmh 29.55 in1000.7 mb 0.00 in0.0 mm 0.00 in0.0 mm 0.14 in3.6 mm
11:30 PM 47.8°F8.8°C 40.0°F4.4°C 74% 1.7 mph NNW2.7 kmh NNW 4.5 mph7.2 kmh 29.55 in1000.7 mb 0.00 in0.0 mm 0.00 in0.0 mm 0.14 in3.6 mm
11:40 PM 48.0°F8.9°C 40.5°F4.7°C 75% 3.7 mph NW6.0 kmh NW 5.4 mph8.7 kmh 29.55 in1000.7 mb 0.00 in0.0 mm 0.00 in0.0 mm 0.14 in3.6 mm
11:50 PM 47.8°F8.8°C 40.0°F4.4°C 74% 2.6 mph W4.2 kmh W 3.8 mph6.1 kmh 29.55 in1000.7 mb 0.00 in0.0 mm 0.00 in0.0 mm 0.14 in3.6 mm